Nearby METAR Reports

 

KORH - Worcester, Massachusetts, USA
Distance from station: NW 4mi, 7km
Updated: Wed, 26-Jul-2017 9:54pm EDT
Clear
Clear
 Wind from WSW
Wind: WSW 12 mph , 19 km/h
Temperature: 64°F , 18°C
Dew Point: 54°F , 12°C
Humidity: 68%
Barometer: 30.14 inHg , 1020.7 hPa
Clouds: Clear
Visibility: 10 miles , 16 km
2017/07/27 01:54 KORH 270154Z AUTO 24010KT 10SM CLR 18/12 A3014 RMK AO2 SLP205 T01780122
KBOS - Boston, Massachusetts, USA
Distance from station: ENE 42mi, 68km
Updated: Wed, 26-Jul-2017 9:54pm EDT
Mostly cloudy
Mostly cloudy
 Wind from S
Wind: S 13 mph , 20 km/h
Temperature: 70°F , 21°C
Dew Point: 57°F , 14°C
Humidity: 64%
Barometer: 30.13 inHg , 1020.3 hPa
Clouds: Mostly cloudy
Visibility: 10 miles , 16 km
Cloud details: Few Clouds 6000 ft
Partly cloudy 22000 ft
Mostly cloudy 30000 ft
2017/07/27 01:54 KBOS 270154Z 19011KT 10SM FEW060 SCT220 BKN300 21/14 A3013 RMK AO2 SLP201 T02060144 $
 
KCQX - Chatham, Massachusetts, USA
Distance from station: SE 102mi, 164km
Updated: Wed, 26-Jul-2017 9:52pm EDT
Clear
Clear
 Wind from SSW
Wind: SSW 8 mph , 13 km/h
Temperature: 64°F , 18°C
Dew Point: 61°F , 16°C
Humidity: 88%
Barometer: 30.17 inHg , 1021.7 hPa
Clouds: Clear
Visibility: 10 miles , 16 km
2017/07/27 01:52 KCQX 270152Z AUTO 21007KT 10SM CLR 18/16 A3017 RMK AO2 SLP218 T01780161
KMVY - Marthas Vineyard, Massachusetts, USA
Distance from station: SE 84mi, 135km
Updated: Wed, 26-Jul-2017 9:53pm EDT
Clear
Clear
 Wind from SSW
Wind: SSW 3 mph , 6 km/h
Temperature: 61°F , 16°C
Dew Point: 55°F , 13°C
Humidity: 83%
Barometer: 30.17 inHg , 1021.7 hPa
Clouds: Clear
Visibility: 10 miles , 16 km
2017/07/27 01:53 KMVY 270153Z 20003KT 10SM CLR 16/13 A3017 RMK AO2 SLP215 T01560133
 
KPVC - Provincetown, Massachusetts, USA
Distance from station: NNW 85mi, 136km
Updated: Wed, 26-Jul-2017 9:56pm EDT
Clear
Clear
 Wind from S
Wind: S 9 mph , 15 km/h
Temperature: 63°F , 17°C
Dew Point: 61°F , 16°C
Humidity: 94%
Barometer: 30.15 inHg , 1021 hPa
Clouds: Clear
Visibility: 10 miles , 16 km
2017/07/27 01:56 KPVC 270156Z AUTO 19008KT 10SM CLR 17/16 A3015 RMK AO2 SLP210 T01720156
KAQW - Savoy, Massachusetts, USA
Distance from station: NNW 66mi, 106km
Updated: Wed, 26-Jul-2017 9:52pm EDT
Mostly cloudy
Mostly cloudy
 Wind from calm
Wind: Calm
Temperature: 63°F , 17°C
Dew Point: 57°F , 14°C
Humidity: 83%
Barometer: 30.12 inHg , 1020 hPa
Clouds: Mostly cloudy
Visibility: 10 miles , 16 km
Cloud details: Mostly cloudy 5500 ft
2017/07/27 01:52 KAQW 270152Z AUTO 00000KT 10SM BKN055 17/14 A3012 RMK AO2 SLP199 T01720144
 
KIZG - Fryeburg, Maine, USA
Distance from station: NNE 133mi, 214km
Updated: Wed, 26-Jul-2017 9:54pm EDT
Clear
Clear
 Wind from varies
Wind: varies 5 mph , 7 km/h
Temperature: 66°F , 19°C
Dew Point: 55°F , 13°C
Humidity: 68%
Barometer: 30.09 inHg , 1019 hPa
Clouds: Clear
Visibility: 10 miles , 16 km
2017/07/27 01:54 KIZG 270154Z AUTO VRB04KT 10SM CLR 19/13 A3009 RMK AO2 SLP189 T01940128
KMWN - Mt Washington, New Hampshire, USA
Distance from station: NNE 146mi, 234km
Updated: Wed, 26-Jul-2017 9:50pm EDT
Patches of fog, Overcast
Patches of fog, Overcast
 Wind from W
Wind: W 30 mph , 48 km/h, Gust: 35 mph , 56 km/h
Temperature: 48°F , 9°C
Wind Chill: 39°F , 4°C
Dew Point: 45°F , 7°C
Humidity: 87%
Summary: Patches of Fog
Clouds: Overcast
Visibility: 100 miles , 160 km
Cloud details: Few Clouds 0 ft
Few Clouds 500 ft
Partly cloudy 1000 ft
Partly cloudy 6000 ft
Mostly cloudy 16000 ft
Overcast 19000 ft
2017/07/27 01:50 KMWN 270150Z 26026G30KT 100SM BCFG FEW000 FEW005 SCT010 SCT060 BKN160 OVC190 09/07 RMK BCFG FEW000 BCFG INTMT INTMT FG
 
KBML - Berlin, New Hampshire, USA
Distance from station: NNE 160mi, 257km
Updated: Wed, 26-Jul-2017 9:52pm EDT
Mostly cloudy
Mostly cloudy
 Wind from calm
Wind: Calm
Temperature: 63°F , 17°C
Dew Point: 57°F , 14°C
Humidity: 83%
Barometer: 30.09 inHg , 1019 hPa
Clouds: Mostly cloudy
Visibility: 10 miles , 16 km
Cloud details: Mostly cloudy 6500 ft
2017/07/27 01:52 KBML 270152Z AUTO 00000KT 10SM BKN065 17/14 A3009 RMK AO2 SLP189 T01670139